sensor_id;sensor_type;location;lat;lon;timestamp;P1;durP1;ratioP1;P2;durP2;ratioP2
577;SDS011;275;48.492;9.214;2023-02-22T00:01:10;11.15;;;8.63;;
577;SDS011;275;48.492;9.214;2023-02-22T00:03:47;9.25;;;8.25;;
577;SDS011;275;48.492;9.214;2023-02-22T00:06:18;9.43;;;8.07;;
577;SDS011;275;48.492;9.214;2023-02-22T00:08:49;8.75;;;7.95;;
577;SDS011;275;48.492;9.214;2023-02-22T00:11:16;8.30;;;7.15;;
577;SDS011;275;48.492;9.214;2023-02-22T00:13:44;8.90;;;6.45;;
577;SDS011;275;48.492;9.214;2023-02-22T00:16:12;8.05;;;6.57;;
577;SDS011;275;48.492;9.214;2023-02-22T00:18:41;8.93;;;7.10;;
577;SDS011;275;48.492;9.214;2023-02-22T00:21:09;8.93;;;7.82;;
577;SDS011;275;48.492;9.214;2023-02-22T00:23:40;8.18;;;7.35;;
577;SDS011;275;48.492;9.214;2023-02-22T00:26:10;9.57;;;8.57;;
577;SDS011;275;48.492;9.214;2023-02-22T00:28:42;8.60;;;7.80;;
577;SDS011;275;48.492;9.214;2023-02-22T00:31:10;9.80;;;8.80;;
577;SDS011;275;48.492;9.214;2023-02-22T00:33:37;8.27;;;6.80;;
577;SDS011;275;48.492;9.214;2023-02-22T00:36:04;8.20;;;7.40;;
577;SDS011;275;48.492;9.214;2023-02-22T00:38:32;7.53;;;6.80;;
577;SDS011;275;48.492;9.214;2023-02-22T00:41:00;8.20;;;7.40;;
577;SDS011;275;48.492;9.214;2023-02-22T00:43:27;8.48;;;7.20;;
577;SDS011;275;48.492;9.214;2023-02-22T00:45:54;14.02;;;11.70;;
577;SDS011;275;48.492;9.214;2023-02-22T00:48:21;13.98;;;11.48;;
577;SDS011;275;48.492;9.214;2023-02-22T00:50:48;15.93;;;12.00;;
577;SDS011;275;48.492;9.214;2023-02-22T00:53:19;13.55;;;12.25;;
577;SDS011;275;48.492;9.214;2023-02-22T00:55:46;13.88;;;12.43;;
577;SDS011;275;48.492;9.214;2023-02-22T00:58:14;13.68;;;12.38;;
577;SDS011;275;48.492;9.214;2023-02-22T01:00:42;15.02;;;13.57;;
577;SDS011;275;48.492;9.214;2023-02-22T01:03:10;14.68;;;13.18;;
577;SDS011;275;48.492;9.214;2023-02-22T01:05:39;15.30;;;13.70;;
577;SDS011;275;48.492;9.214;2023-02-22T01:08:07;15.27;;;13.77;;
577;SDS011;275;48.492;9.214;2023-02-22T01:10:35;15.45;;;13.85;;
577;SDS011;275;48.492;9.214;2023-02-22T01:13:02;14.38;;;12.80;;
577;SDS011;275;48.492;9.214;2023-02-22T01:15:34;13.57;;;12.30;;
577;SDS011;275;48.492;9.214;2023-02-22T01:18:02;13.27;;;11.30;;
577;SDS011;275;48.492;9.214;2023-02-22T01:20:30;13.50;;;12.15;;
577;SDS011;275;48.492;9.214;2023-02-22T01:22:59;15.27;;;12.23;;
577;SDS011;275;48.492;9.214;2023-02-22T01:25:28;15.70;;;11.57;;
577;SDS011;275;48.492;9.214;2023-02-22T01:27:56;13.07;;;11.00;;
577;SDS011;275;48.492;9.214;2023-02-22T01:30:24;13.20;;;11.20;;
577;SDS011;275;48.492;9.214;2023-02-22T01:32:54;13.73;;;11.73;;
577;SDS011;275;48.492;9.214;2023-02-22T01:35:23;10.95;;;9.85;;
577;SDS011;275;48.492;9.214;2023-02-22T01:37:52;10.63;;;9.52;;
577;SDS011;275;48.492;9.214;2023-02-22T01:40:19;9.98;;;9.02;;
577;SDS011;275;48.492;9.214;2023-02-22T01:42:50;10.73;;;7.90;;
577;SDS011;275;48.492;9.214;2023-02-22T01:45:32;9.40;;;8.50;;
577;SDS011;275;48.492;9.214;2023-02-22T01:48:23;8.85;;;7.95;;
577;SDS011;275;48.492;9.214;2023-02-22T01:50:56;10.18;;;8.18;;
577;SDS011;275;48.492;9.214;2023-02-22T01:53:26;11.15;;;7.70;;
577;SDS011;275;48.492;9.214;2023-02-22T01:55:57;7.75;;;6.95;;
577;SDS011;275;48.492;9.214;2023-02-22T01:58:25;9.50;;;8.60;;
577;SDS011;275;48.492;9.214;2023-02-22T02:00:55;8.35;;;6.70;;
577;SDS011;275;48.492;9.214;2023-02-22T02:03:25;7.18;;;6.47;;
577;SDS011;275;48.492;9.214;2023-02-22T02:05:55;9.23;;;7.40;;
577;SDS011;275;48.492;9.214;2023-02-22T02:08:26;7.75;;;6.95;;
577;SDS011;275;48.492;9.214;2023-02-22T02:11:00;6.85;;;6.15;;
577;SDS011;275;48.492;9.214;2023-02-22T02:13:27;7.90;;;6.78;;
577;SDS011;275;48.492;9.214;2023-02-22T02:15:54;8.57;;;6.85;;
577;SDS011;275;48.492;9.214;2023-02-22T02:18:22;7.93;;;7.13;;
577;SDS011;275;48.492;9.214;2023-02-22T02:27:10;12.40;;;11.10;;
577;SDS011;275;48.492;9.214;2023-02-22T02:32:44;12.93;;;10.68;;
577;SDS011;275;48.492;9.214;2023-02-22T02:35:28;14.07;;;12.57;;
577;SDS011;275;48.492;9.214;2023-02-22T02:38:04;13.98;;;10.63;;
577;SDS011;275;48.492;9.214;2023-02-22T02:40:38;14.13;;;11.32;;
577;SDS011;275;48.492;9.214;2023-02-22T02:43:13;12.90;;;11.70;;
577;SDS011;275;48.492;9.214;2023-02-22T02:45:46;12.60;;;11.30;;
577;SDS011;275;48.492;9.214;2023-02-22T02:48:22;13.02;;;11.15;;
577;SDS011;275;48.492;9.214;2023-02-22T02:50:52;12.13;;;11.02;;
577;SDS011;275;48.492;9.214;2023-02-22T02:53:24;11.68;;;10.57;;
577;SDS011;275;48.492;9.214;2023-02-22T02:55:56;12.23;;;11.13;;
577;SDS011;275;48.492;9.214;2023-02-22T02:58:24;11.65;;;10.55;;
577;SDS011;275;48.492;9.214;2023-02-22T03:00:51;12.00;;;10.60;;
577;SDS011;275;48.492;9.214;2023-02-22T03:03:30;12.73;;;11.43;;
577;SDS011;275;48.492;9.214;2023-02-22T03:09:37;12.43;;;11.32;;
577;SDS011;275;48.492;9.214;2023-02-22T03:12:16;12.27;;;10.07;;
577;SDS011;275;48.492;9.214;2023-02-22T03:14:56;12.23;;;10.93;;
577;SDS011;275;48.492;9.214;2023-02-22T03:17:33;16.08;;;11.65;;
577;SDS011;275;48.492;9.214;2023-02-22T03:20:09;8.77;;;7.47;;
577;SDS011;275;48.492;9.214;2023-02-22T03:22:39;11.90;;;10.80;;
577;SDS011;275;48.492;9.214;2023-02-22T03:25:15;12.35;;;11.15;;
577;SDS011;275;48.492;9.214;2023-02-22T03:27:46;14.40;;;12.13;;
577;SDS011;275;48.492;9.214;2023-02-22T03:30:19;12.70;;;11.40;;
577;SDS011;275;48.492;9.214;2023-02-22T03:32:49;12.40;;;11.25;;
577;SDS011;275;48.492;9.214;2023-02-22T03:35:21;11.60;;;10.40;;
577;SDS011;275;48.492;9.214;2023-02-22T03:37:52;12.75;;;11.52;;
577;SDS011;275;48.492;9.214;2023-02-22T03:40:22;11.90;;;10.70;;
577;SDS011;275;48.492;9.214;2023-02-22T03:42:53;11.88;;;10.52;;
577;SDS011;275;48.492;9.214;2023-02-22T03:45:23;12.35;;;11.20;;
577;SDS011;275;48.492;9.214;2023-02-22T03:47:52;12.90;;;11.75;;
577;SDS011;275;48.492;9.214;2023-02-22T03:50:29;13.18;;;11.77;;
577;SDS011;275;48.492;9.214;2023-02-22T03:53:00;12.60;;;11.43;;
577;SDS011;275;48.492;9.214;2023-02-22T03:55:28;14.07;;;12.57;;
577;SDS011;275;48.492;9.214;2023-02-22T03:57:56;12.10;;;10.90;;
577;SDS011;275;48.492;9.214;2023-02-22T04:00:26;12.32;;;11.20;;
577;SDS011;275;48.492;9.214;2023-02-22T04:02:54;12.85;;;10.70;;
577;SDS011;275;48.492;9.214;2023-02-22T04:05:21;14.15;;;11.05;;
577;SDS011;275;48.492;9.214;2023-02-22T04:07:51;10.95;;;9.85;;
577;SDS011;275;48.492;9.214;2023-02-22T04:10:18;9.68;;;8.77;;
577;SDS011;275;48.492;9.214;2023-02-22T04:12:45;10.60;;;9.70;;
577;SDS011;275;48.492;9.214;2023-02-22T04:15:12;10.23;;;8.63;;
577;SDS011;275;48.492;9.214;2023-02-22T04:17:40;10.02;;;8.98;;
577;SDS011;275;48.492;9.214;2023-02-22T04:20:08;9.70;;;7.95;;
577;SDS011;275;48.492;9.214;2023-02-22T04:22:37;9.32;;;8.32;;
577;SDS011;275;48.492;9.214;2023-02-22T04:25:06;9.45;;;8.32;;
577;SDS011;275;48.492;9.214;2023-02-22T04:27:33;9.05;;;8.15;;
577;SDS011;275;48.492;9.214;2023-02-22T04:30:00;9.25;;;8.05;;
577;SDS011;275;48.492;9.214;2023-02-22T04:32:27;10.70;;;8.20;;
577;SDS011;275;48.492;9.214;2023-02-22T04:34:53;9.13;;;7.97;;
577;SDS011;275;48.492;9.214;2023-02-22T04:37:20;9.18;;;8.10;;
577;SDS011;275;48.492;9.214;2023-02-22T04:39:47;11.13;;;10.02;;
577;SDS011;275;48.492;9.214;2023-02-22T04:42:15;11.70;;;10.57;;
577;SDS011;275;48.492;9.214;2023-02-22T04:44:42;11.45;;;10.35;;
577;SDS011;275;48.492;9.214;2023-02-22T04:47:09;13.45;;;11.20;;
577;SDS011;275;48.492;9.214;2023-02-22T04:49:35;12.88;;;11.63;;
577;SDS011;275;48.492;9.214;2023-02-22T04:52:02;12.30;;;11.15;;
577;SDS011;275;48.492;9.214;2023-02-22T04:54:29;13.32;;;12.02;;
577;SDS011;275;48.492;9.214;2023-02-22T04:56:56;12.95;;;11.65;;
577;SDS011;275;48.492;9.214;2023-02-22T04:59:24;12.05;;;10.75;;
577;SDS011;275;48.492;9.214;2023-02-22T05:01:51;12.98;;;11.77;;
577;SDS011;275;48.492;9.214;2023-02-22T05:04:18;12.55;;;11.35;;
577;SDS011;275;48.492;9.214;2023-02-22T05:06:45;12.85;;;11.45;;
577;SDS011;275;48.492;9.214;2023-02-22T05:09:13;13.95;;;12.55;;
577;SDS011;275;48.492;9.214;2023-02-22T05:11:39;13.60;;;12.07;;
577;SDS011;275;48.492;9.214;2023-02-22T05:14:06;13.43;;;11.63;;
577;SDS011;275;48.492;9.214;2023-02-22T05:16:34;11.52;;;10.32;;
577;SDS011;275;48.492;9.214;2023-02-22T05:19:01;10.00;;;9.00;;
577;SDS011;275;48.492;9.214;2023-02-22T05:21:29;14.45;;;11.57;;
577;SDS011;275;48.492;9.214;2023-02-22T05:23:55;11.55;;;10.38;;
577;SDS011;275;48.492;9.214;2023-02-22T05:26:22;12.88;;;10.90;;
577;SDS011;275;48.492;9.214;2023-02-22T05:28:49;14.07;;;12.38;;
577;SDS011;275;48.492;9.214;2023-02-22T05:31:16;12.30;;;11.10;;
577;SDS011;275;48.492;9.214;2023-02-22T05:33:44;11.63;;;10.52;;
577;SDS011;275;48.492;9.214;2023-02-22T05:36:11;11.82;;;10.45;;
577;SDS011;275;48.492;9.214;2023-02-22T05:38:38;10.55;;;9.43;;
577;SDS011;275;48.492;9.214;2023-02-22T05:41:07;11.40;;;10.40;;
577;SDS011;275;48.492;9.214;2023-02-22T05:43:34;11.50;;;10.20;;
577;SDS011;275;48.492;9.214;2023-02-22T05:46:01;10.63;;;9.57;;
577;SDS011;275;48.492;9.214;2023-02-22T05:48:28;10.70;;;9.80;;
577;SDS011;275;48.492;9.214;2023-02-22T05:50:57;11.50;;;9.93;;
577;SDS011;275;48.492;9.214;2023-02-22T05:53:24;12.23;;;9.98;;
577;SDS011;275;48.492;9.214;2023-02-22T05:55:51;10.20;;;9.07;;
577;SDS011;275;48.492;9.214;2023-02-22T05:58:18;11.13;;;8.50;;
577;SDS011;275;48.492;9.214;2023-02-22T06:00:45;8.70;;;7.80;;
577;SDS011;275;48.492;9.214;2023-02-22T06:03:12;13.27;;;9.52;;
577;SDS011;275;48.492;9.214;2023-02-22T06:05:38;10.13;;;8.02;;
577;SDS011;275;48.492;9.214;2023-02-22T06:08:07;10.57;;;8.82;;
577;SDS011;275;48.492;9.214;2023-02-22T06:10:34;11.75;;;7.95;;
577;SDS011;275;48.492;9.214;2023-02-22T06:13:01;9.82;;;8.82;;
577;SDS011;275;48.492;9.214;2023-02-22T06:15:29;12.73;;;9.38;;
577;SDS011;275;48.492;9.214;2023-02-22T06:17:57;14.07;;;10.13;;
577;SDS011;275;48.492;9.214;2023-02-22T06:20:25;10.68;;;8.90;;
577;SDS011;275;48.492;9.214;2023-02-22T06:22:54;11.52;;;10.02;;
577;SDS011;275;48.492;9.214;2023-02-22T06:25:24;10.93;;;9.85;;
577;SDS011;275;48.492;9.214;2023-02-22T06:27:52;12.00;;;9.85;;
577;SDS011;275;48.492;9.214;2023-02-22T06:30:20;10.80;;;9.80;;
577;SDS011;275;48.492;9.214;2023-02-22T06:32:47;10.38;;;9.43;;
577;SDS011;275;48.492;9.214;2023-02-22T06:35:15;12.73;;;11.10;;
577;SDS011;275;48.492;9.214;2023-02-22T06:37:42;12.98;;;11.68;;
577;SDS011;275;48.492;9.214;2023-02-22T06:40:09;12.88;;;11.57;;
577;SDS011;275;48.492;9.214;2023-02-22T06:42:38;13.45;;;11.73;;
577;SDS011;275;48.492;9.214;2023-02-22T06:45:05;13.32;;;11.85;;
577;SDS011;275;48.492;9.214;2023-02-22T06:47:36;12.75;;;11.65;;
577;SDS011;275;48.492;9.214;2023-02-22T06:50:04;12.32;;;10.98;;
577;SDS011;275;48.492;9.214;2023-02-22T06:52:31;13.95;;;12.52;;
577;SDS011;275;48.492;9.214;2023-02-22T06:54:58;13.63;;;12.13;;
577;SDS011;275;48.492;9.214;2023-02-22T06:57:25;12.30;;;11.10;;
577;SDS011;275;48.492;9.214;2023-02-22T06:59:53;14.23;;;11.98;;
577;SDS011;275;48.492;9.214;2023-02-22T07:02:20;13.13;;;11.82;;
577;SDS011;275;48.492;9.214;2023-02-22T07:04:46;14.35;;;12.82;;
577;SDS011;275;48.492;9.214;2023-02-22T07:07:13;14.88;;;12.40;;
577;SDS011;275;48.492;9.214;2023-02-22T07:09:40;13.10;;;11.65;;
577;SDS011;275;48.492;9.214;2023-02-22T07:12:07;12.63;;;10.90;;
577;SDS011;275;48.492;9.214;2023-02-22T07:14:34;14.52;;;11.25;;
577;SDS011;275;48.492;9.214;2023-02-22T07:17:02;12.20;;;11.00;;
577;SDS011;275;48.492;9.214;2023-02-22T07:19:29;12.20;;;10.85;;
577;SDS011;275;48.492;9.214;2023-02-22T07:21:56;12.27;;;11.07;;
577;SDS011;275;48.492;9.214;2023-02-22T07:24:23;14.40;;;10.80;;
577;SDS011;275;48.492;9.214;2023-02-22T07:26:52;12.45;;;11.07;;
577;SDS011;275;48.492;9.214;2023-02-22T07:29:19;13.63;;;10.70;;
577;SDS011;275;48.492;9.214;2023-02-22T07:31:46;12.77;;;11.25;;
577;SDS011;275;48.492;9.214;2023-02-22T07:34:15;11.65;;;10.55;;
577;SDS011;275;48.492;9.214;2023-02-22T07:36:42;14.15;;;11.00;;
577;SDS011;275;48.492;9.214;2023-02-22T07:39:08;10.65;;;9.57;;
577;SDS011;275;48.492;9.214;2023-02-22T07:41:35;12.00;;;10.70;;
577;SDS011;275;48.492;9.214;2023-02-22T07:44:02;14.65;;;9.55;;
577;SDS011;275;48.492;9.214;2023-02-22T07:46:29;10.02;;;9.02;;
577;SDS011;275;48.492;9.214;2023-02-22T07:48:56;11.48;;;9.90;;
577;SDS011;275;48.492;9.214;2023-02-22T07:51:24;11.98;;;10.77;;
577;SDS011;275;48.492;9.214;2023-02-22T07:53:51;11.98;;;9.95;;
577;SDS011;275;48.492;9.214;2023-02-22T07:56:18;13.63;;;10.70;;
577;SDS011;275;48.492;9.214;2023-02-22T07:58:45;12.70;;;10.85;;
577;SDS011;275;48.492;9.214;2023-02-22T08:01:11;11.55;;;10.27;;
577;SDS011;275;48.492;9.214;2023-02-22T08:03:39;11.38;;;9.02;;
577;SDS011;275;48.492;9.214;2023-02-22T08:06:06;11.77;;;9.65;;
577;SDS011;275;48.492;9.214;2023-02-22T08:08:35;11.50;;;10.48;;
577;SDS011;275;48.492;9.214;2023-02-22T08:11:01;11.00;;;9.90;;
577;SDS011;275;48.492;9.214;2023-02-22T08:13:28;10.23;;;9.25;;
577;SDS011;275;48.492;9.214;2023-02-22T08:15:55;10.48;;;8.82;;
577;SDS011;275;48.492;9.214;2023-02-22T08:18:23;9.48;;;8.50;;
577;SDS011;275;48.492;9.214;2023-02-22T08:20:50;11.05;;;8.60;;
577;SDS011;275;48.492;9.214;2023-02-22T08:23:18;9.60;;;8.18;;
577;SDS011;275;48.492;9.214;2023-02-22T08:25:47;13.32;;;9.27;;
577;SDS011;275;48.492;9.214;2023-02-22T08:28:15;8.90;;;8.05;;
577;SDS011;275;48.492;9.214;2023-02-22T08:30:44;8.45;;;7.53;;
577;SDS011;275;48.492;9.214;2023-02-22T08:33:11;9.90;;;8.90;;
577;SDS011;275;48.492;9.214;2023-02-22T08:35:41;10.60;;;9.50;;
577;SDS011;275;48.492;9.214;2023-02-22T08:38:14;12.60;;;9.00;;
577;SDS011;275;48.492;9.214;2023-02-22T08:40:43;11.70;;;8.98;;
577;SDS011;275;48.492;9.214;2023-02-22T08:43:11;13.32;;;9.88;;
577;SDS011;275;48.492;9.214;2023-02-22T08:45:38;10.93;;;9.77;;
577;SDS011;275;48.492;9.214;2023-02-22T08:48:05;9.90;;;8.93;;
577;SDS011;275;48.492;9.214;2023-02-22T08:50:32;11.00;;;9.60;;
577;SDS011;275;48.492;9.214;2023-02-22T08:53:00;11.45;;;9.55;;
577;SDS011;275;48.492;9.214;2023-02-22T08:55:29;10.98;;;9.63;;
577;SDS011;275;48.492;9.214;2023-02-22T08:57:57;12.07;;;10.50;;
577;SDS011;275;48.492;9.214;2023-02-22T09:00:26;13.30;;;9.80;;
577;SDS011;275;48.492;9.214;2023-02-22T09:02:57;12.75;;;8.75;;
577;SDS011;275;48.492;9.214;2023-02-22T09:05:23;10.82;;;9.35;;
577;SDS011;275;48.492;9.214;2023-02-22T09:07:50;16.55;;;10.15;;
577;SDS011;275;48.492;9.214;2023-02-22T09:10:19;11.63;;;8.88;;
577;SDS011;275;48.492;9.214;2023-02-22T09:12:48;9.80;;;8.75;;
577;SDS011;275;48.492;9.214;2023-02-22T09:15:16;11.18;;;9.27;;
577;SDS011;275;48.492;9.214;2023-02-22T09:17:44;12.95;;;9.57;;
577;SDS011;275;48.492;9.214;2023-02-22T09:20:11;14.77;;;9.32;;
577;SDS011;275;48.492;9.214;2023-02-22T09:22:38;17.15;;;9.82;;
577;SDS011;275;48.492;9.214;2023-02-22T09:25:06;11.13;;;9.43;;
577;SDS011;275;48.492;9.214;2023-02-22T09:27:33;10.07;;;7.20;;
577;SDS011;275;48.492;9.214;2023-02-22T09:30:00;11.40;;;9.07;;
577;SDS011;275;48.492;9.214;2023-02-22T09:32:27;10.60;;;9.27;;
577;SDS011;275;48.492;9.214;2023-02-22T09:34:55;10.80;;;8.57;;
577;SDS011;275;48.492;9.214;2023-02-22T09:37:22;10.63;;;9.45;;
577;SDS011;275;48.492;9.214;2023-02-22T09:39:49;10.30;;;8.98;;
577;SDS011;275;48.492;9.214;2023-02-22T09:42:18;15.25;;;9.15;;
577;SDS011;275;48.492;9.214;2023-02-22T09:44:54;10.48;;;8.75;;
577;SDS011;275;48.492;9.214;2023-02-22T09:47:32;8.70;;;7.90;;
577;SDS011;275;48.492;9.214;2023-02-22T09:50:06;10.30;;;8.18;;
577;SDS011;275;48.492;9.214;2023-02-22T09:52:40;11.00;;;8.15;;
577;SDS011;275;48.492;9.214;2023-02-22T09:55:19;12.80;;;8.77;;
577;SDS011;275;48.492;9.214;2023-02-22T09:57:55;12.27;;;7.70;;
577;SDS011;275;48.492;9.214;2023-02-22T10:00:26;9.93;;;7.78;;
577;SDS011;275;48.492;9.214;2023-02-22T10:02:59;11.43;;;7.72;;
577;SDS011;275;48.492;9.214;2023-02-22T10:05:39;11.52;;;7.32;;
577;SDS011;275;48.492;9.214;2023-02-22T10:08:09;12.23;;;8.05;;
577;SDS011;275;48.492;9.214;2023-02-22T10:10:38;9.18;;;6.90;;
577;SDS011;275;48.492;9.214;2023-02-22T10:13:12;11.50;;;7.00;;
577;SDS011;275;48.492;9.214;2023-02-22T10:15:48;9.10;;;6.43;;
577;SDS011;275;48.492;9.214;2023-02-22T10:18:29;9.40;;;7.67;;
577;SDS011;275;48.492;9.214;2023-02-22T10:21:20;9.60;;;7.47;;
577;SDS011;275;48.492;9.214;2023-02-22T10:23:58;13.93;;;7.60;;
577;SDS011;275;48.492;9.214;2023-02-22T10:26:33;10.03;;;6.97;;
577;SDS011;275;48.492;9.214;2023-02-22T10:29:04;10.80;;;7.50;;
577;SDS011;275;48.492;9.214;2023-02-22T10:31:36;11.00;;;7.87;;
577;SDS011;275;48.492;9.214;2023-02-22T10:34:10;10.07;;;6.87;;
577;SDS011;275;48.492;9.214;2023-02-22T10:36:40;9.53;;;8.17;;
577;SDS011;275;48.492;9.214;2023-02-22T10:39:10;10.77;;;6.90;;
577;SDS011;275;48.492;9.214;2023-02-22T10:41:51;13.60;;;8.87;;
577;SDS011;275;48.492;9.214;2023-02-22T10:44:21;8.83;;;6.90;;
577;SDS011;275;48.492;9.214;2023-02-22T10:46:49;14.13;;;8.20;;
577;SDS011;275;48.492;9.214;2023-02-22T10:49:18;8.80;;;7.70;;
577;SDS011;275;48.492;9.214;2023-02-22T10:51:48;9.47;;;8.47;;
577;SDS011;275;48.492;9.214;2023-02-22T10:54:27;8.80;;;6.80;;
577;SDS011;275;48.492;9.214;2023-02-22T10:56:57;9.80;;;7.70;;
577;SDS011;275;48.492;9.214;2023-02-22T10:59:28;9.80;;;7.43;;
577;SDS011;275;48.492;9.214;2023-02-22T11:01:58;10.23;;;9.13;;
577;SDS011;275;48.492;9.214;2023-02-22T11:04:26;12.30;;;8.60;;
577;SDS011;275;48.492;9.214;2023-02-22T11:07:21;11.40;;;8.03;;
577;SDS011;275;48.492;9.214;2023-02-22T11:09:52;10.77;;;8.60;;
577;SDS011;275;48.492;9.214;2023-02-22T11:12:21;9.10;;;8.20;;
577;SDS011;275;48.492;9.214;2023-02-22T11:14:53;10.70;;;8.20;;
577;SDS011;275;48.492;9.214;2023-02-22T11:17:23;9.70;;;8.70;;
577;SDS011;275;48.492;9.214;2023-02-22T11:19:55;8.90;;;8.00;;
577;SDS011;275;48.492;9.214;2023-02-22T11:22:25;9.77;;;7.87;;
577;SDS011;275;48.492;9.214;2023-02-22T11:24:55;10.93;;;8.00;;
577;SDS011;275;48.492;9.214;2023-02-22T11:27:32;10.83;;;7.87;;
577;SDS011;275;48.492;9.214;2023-02-22T11:30:19;8.23;;;7.43;;
577;SDS011;275;48.492;9.214;2023-02-22T11:32:52;11.80;;;6.57;;
577;SDS011;275;48.492;9.214;2023-02-22T11:38:18;9.10;;;6.37;;
577;SDS011;275;48.492;9.214;2023-02-22T11:41:03;9.70;;;6.97;;
577;SDS011;275;48.492;9.214;2023-02-22T11:43:33;8.23;;;6.57;;
577;SDS011;275;48.492;9.214;2023-02-22T11:46:01;12.43;;;6.33;;
577;SDS011;275;48.492;9.214;2023-02-22T11:48:30;7.50;;;6.30;;
577;SDS011;275;48.492;9.214;2023-02-22T11:51:13;9.40;;;6.40;;
577;SDS011;275;48.492;9.214;2023-02-22T11:53:55;9.07;;;5.50;;
577;SDS011;275;48.492;9.214;2023-02-22T11:56:38;8.50;;;6.43;;
577;SDS011;275;48.492;9.214;2023-02-22T11:59:10;9.77;;;6.40;;
577;SDS011;275;48.492;9.214;2023-02-22T12:01:46;8.53;;;5.70;;
577;SDS011;275;48.492;9.214;2023-02-22T12:04:22;9.57;;;5.60;;
577;SDS011;275;48.492;9.214;2023-02-22T12:07:16;10.50;;;6.43;;
577;SDS011;275;48.492;9.214;2023-02-22T12:09:58;7.60;;;6.00;;
577;SDS011;275;48.492;9.214;2023-02-22T12:12:33;8.47;;;6.30;;
577;SDS011;275;48.492;9.214;2023-02-22T12:15:10;8.10;;;6.43;;
577;SDS011;275;48.492;9.214;2023-02-22T12:17:55;7.80;;;6.20;;
577;SDS011;275;48.492;9.214;2023-02-22T12:20:27;7.77;;;5.73;;
577;SDS011;275;48.492;9.214;2023-02-22T12:23:02;9.10;;;6.30;;
577;SDS011;275;48.492;9.214;2023-02-22T12:25:40;11.77;;;6.73;;
577;SDS011;275;48.492;9.214;2023-02-22T12:28:23;9.27;;;6.33;;
577;SDS011;275;48.492;9.214;2023-02-22T12:30:58;9.07;;;6.03;;
577;SDS011;275;48.492;9.214;2023-02-22T12:33:34;9.67;;;6.60;;
577;SDS011;275;48.492;9.214;2023-02-22T12:36:09;8.70;;;5.90;;
577;SDS011;275;48.492;9.214;2023-02-22T12:38:41;8.33;;;5.83;;
577;SDS011;275;48.492;9.214;2023-02-22T12:41:14;9.40;;;6.17;;
577;SDS011;275;48.492;9.214;2023-02-22T12:43:48;7.77;;;5.77;;
577;SDS011;275;48.492;9.214;2023-02-22T12:46:19;9.03;;;6.37;;
577;SDS011;275;48.492;9.214;2023-02-22T12:48:51;9.30;;;5.50;;
577;SDS011;275;48.492;9.214;2023-02-22T12:51:26;8.87;;;6.53;;
577;SDS011;275;48.492;9.214;2023-02-22T12:54:00;8.30;;;5.87;;
577;SDS011;275;48.492;9.214;2023-02-22T12:56:38;8.30;;;6.00;;
577;SDS011;275;48.492;9.214;2023-02-22T12:59:11;9.40;;;7.60;;
577;SDS011;275;48.492;9.214;2023-02-22T13:01:44;9.20;;;7.37;;
577;SDS011;275;48.492;9.214;2023-02-22T13:04:15;9.83;;;6.67;;
577;SDS011;275;48.492;9.214;2023-02-22T13:06:45;7.00;;;6.30;;
577;SDS011;275;48.492;9.214;2023-02-22T13:09:31;7.87;;;6.60;;
577;SDS011;275;48.492;9.214;2023-02-22T13:12:16;9.83;;;8.13;;
577;SDS011;275;48.492;9.214;2023-02-22T13:14:50;11.43;;;9.23;;
577;SDS011;275;48.492;9.214;2023-02-22T13:17:27;9.30;;;7.77;;
577;SDS011;275;48.492;9.214;2023-02-22T13:20:03;11.60;;;9.60;;
577;SDS011;275;48.492;9.214;2023-02-22T13:22:39;9.93;;;8.93;;
577;SDS011;275;48.492;9.214;2023-02-22T13:25:12;10.97;;;9.63;;
577;SDS011;275;48.492;9.214;2023-02-22T13:27:44;10.70;;;8.50;;
577;SDS011;275;48.492;9.214;2023-02-22T13:30:17;12.30;;;9.60;;
577;SDS011;275;48.492;9.214;2023-02-22T13:32:56;10.77;;;9.00;;
577;SDS011;275;48.492;9.214;2023-02-22T13:41:42;9.60;;;8.30;;
577;SDS011;275;48.492;9.214;2023-02-22T13:53:16;10.20;;;8.50;;
577;SDS011;275;48.492;9.214;2023-02-22T13:55:46;10.43;;;8.17;;
577;SDS011;275;48.492;9.214;2023-02-22T13:58:20;11.20;;;7.17;;
577;SDS011;275;48.492;9.214;2023-02-22T14:00:50;10.13;;;7.30;;
577;SDS011;275;48.492;9.214;2023-02-22T14:03:33;10.63;;;7.67;;
577;SDS011;275;48.492;9.214;2023-02-22T14:06:08;8.77;;;7.07;;
577;SDS011;275;48.492;9.214;2023-02-22T14:08:43;12.20;;;8.00;;
577;SDS011;275;48.492;9.214;2023-02-22T14:14:12;9.40;;;8.40;;
577;SDS011;275;48.492;9.214;2023-02-22T14:16:44;12.03;;;7.40;;
577;SDS011;275;48.492;9.214;2023-02-22T14:19:41;8.20;;;7.17;;
577;SDS011;275;48.492;9.214;2023-02-22T14:22:24;11.10;;;8.03;;
577;SDS011;275;48.492;9.214;2023-02-22T14:24:53;8.53;;;7.43;;
577;SDS011;275;48.492;9.214;2023-02-22T14:27:21;9.80;;;7.63;;
577;SDS011;275;48.492;9.214;2023-02-22T14:29:49;11.13;;;7.57;;
577;SDS011;275;48.492;9.214;2023-02-22T14:32:19;10.23;;;7.07;;
577;SDS011;275;48.492;9.214;2023-02-22T14:34:55;10.17;;;7.03;;
577;SDS011;275;48.492;9.214;2023-02-22T14:37:32;8.13;;;6.70;;
577;SDS011;275;48.492;9.214;2023-02-22T14:40:05;9.40;;;8.33;;
577;SDS011;275;48.492;9.214;2023-02-22T14:42:43;10.07;;;7.57;;
577;SDS011;275;48.492;9.214;2023-02-22T14:45:16;12.90;;;8.27;;
577;SDS011;275;48.492;9.214;2023-02-22T14:47:50;9.43;;;7.43;;
577;SDS011;275;48.492;9.214;2023-02-22T14:50:26;8.67;;;7.17;;
577;SDS011;275;48.492;9.214;2023-02-22T14:53:00;12.53;;;8.83;;
577;SDS011;275;48.492;9.214;2023-02-22T14:55:31;10.67;;;8.10;;
577;SDS011;275;48.492;9.214;2023-02-22T14:58:06;10.60;;;8.17;;
577;SDS011;275;48.492;9.214;2023-02-22T15:00:38;12.60;;;9.50;;
577;SDS011;275;48.492;9.214;2023-02-22T15:03:15;10.67;;;8.33;;
577;SDS011;275;48.492;9.214;2023-02-22T15:05:51;11.17;;;8.60;;
577;SDS011;275;48.492;9.214;2023-02-22T15:08:18;10.03;;;8.10;;
577;SDS011;275;48.492;9.214;2023-02-22T15:10:52;12.13;;;8.07;;
577;SDS011;275;48.492;9.214;2023-02-22T15:13:20;10.73;;;9.40;;
577;SDS011;275;48.492;9.214;2023-02-22T15:15:53;12.67;;;8.87;;
577;SDS011;275;48.492;9.214;2023-02-22T15:18:26;11.70;;;8.87;;
577;SDS011;275;48.492;9.214;2023-02-22T15:21:01;11.70;;;10.50;;
577;SDS011;275;48.492;9.214;2023-02-22T15:23:37;10.80;;;9.70;;
577;SDS011;275;48.492;9.214;2023-02-22T15:26:06;13.30;;;10.60;;
577;SDS011;275;48.492;9.214;2023-02-22T15:28:40;11.00;;;9.90;;
577;SDS011;275;48.492;9.214;2023-02-22T15:31:21;14.90;;;11.67;;
577;SDS011;275;48.492;9.214;2023-02-22T15:33:52;12.10;;;10.63;;
577;SDS011;275;48.492;9.214;2023-02-22T15:36:20;12.90;;;11.50;;
577;SDS011;275;48.492;9.214;2023-02-22T15:38:50;16.50;;;11.60;;
577;SDS011;275;48.492;9.214;2023-02-22T15:41:22;13.00;;;11.33;;
577;SDS011;275;48.492;9.214;2023-02-22T15:43:58;12.80;;;11.37;;
577;SDS011;275;48.492;9.214;2023-02-22T15:46:26;13.80;;;11.27;;
577;SDS011;275;48.492;9.214;2023-02-22T15:52:00;14.20;;;12.70;;
577;SDS011;275;48.492;9.214;2023-02-22T15:54:41;17.07;;;12.93;;
577;SDS011;275;48.492;9.214;2023-02-22T15:57:12;16.30;;;13.37;;
577;SDS011;275;48.492;9.214;2023-02-22T15:59:42;15.70;;;13.67;;
577;SDS011;275;48.492;9.214;2023-02-22T16:02:19;16.33;;;14.20;;
577;SDS011;275;48.492;9.214;2023-02-22T16:04:58;16.60;;;14.00;;
577;SDS011;275;48.492;9.214;2023-02-22T16:07:31;15.13;;;13.63;;
577;SDS011;275;48.492;9.214;2023-02-22T16:10:01;15.43;;;13.83;;
577;SDS011;275;48.492;9.214;2023-02-22T16:12:33;16.83;;;14.93;;
577;SDS011;275;48.492;9.214;2023-02-22T16:15:00;17.10;;;15.30;;
577;SDS011;275;48.492;9.214;2023-02-22T16:17:33;14.77;;;13.37;;
577;SDS011;275;48.492;9.214;2023-02-22T16:22:57;18.53;;;14.03;;
577;SDS011;275;48.492;9.214;2023-02-22T16:25:26;15.53;;;13.93;;
577;SDS011;275;48.492;9.214;2023-02-22T16:28:00;16.47;;;14.67;;
577;SDS011;275;48.492;9.214;2023-02-22T16:30:31;20.90;;;17.10;;
577;SDS011;275;48.492;9.214;2023-02-22T16:33:01;16.27;;;14.77;;